createdAt,value
2023-04-02T00:00:21.380Z,4.35
2023-04-02T00:03:01.417Z,4.23
2023-04-02T00:05:53.685Z,4.45
2023-04-02T00:08:27.401Z,4.24
2023-04-02T00:10:58.739Z,4.49
2023-04-02T00:13:34.771Z,4.44
2023-04-02T00:16:05.709Z,4.46
2023-04-02T00:18:35.678Z,4.37
2023-04-02T00:21:12.808Z,4.49
2023-04-02T00:23:43.875Z,4.26
2023-04-02T00:26:31.688Z,4.34
2023-04-02T00:29:03.434Z,4.31
2023-04-02T00:31:34.423Z,4.49
2023-04-02T00:34:05.522Z,4.50
2023-04-02T00:36:35.928Z,4.39
2023-04-02T00:39:12.356Z,4.20
2023-04-02T00:41:47.210Z,4.32
2023-04-02T00:44:22.141Z,4.45
2023-04-02T00:46:51.771Z,4.28
2023-04-02T00:49:27.625Z,4.23
2023-04-02T00:52:01.452Z,4.19
2023-04-02T00:54:33.969Z,4.31
2023-04-02T00:57:03.820Z,4.20
2023-04-02T00:59:36.894Z,3.96
2023-04-02T01:02:28.096Z,3.81
2023-04-02T01:05:00.499Z,4.05
2023-04-02T01:08:02.138Z,3.99
2023-04-02T01:10:56.790Z,3.85
2023-04-02T01:13:32.668Z,4.20
2023-04-02T01:16:11.984Z,4.33
2023-04-02T01:18:53.557Z,4.28
2023-04-02T01:21:42.599Z,4.16
2023-04-02T01:24:13.714Z,3.78
2023-04-02T01:26:58.887Z,4.13
2023-04-02T01:29:32.462Z,3.81
2023-04-02T01:32:05.883Z,3.87
2023-04-02T01:34:36.406Z,4.07
2023-04-02T01:37:23.291Z,3.53
2023-04-02T01:40:14.594Z,3.69
2023-04-02T01:42:52.834Z,3.51
2023-04-02T01:45:24.706Z,3.52
2023-04-02T01:47:53.901Z,3.68
2023-04-02T01:50:31.973Z,3.84
2023-04-02T01:53:05.093Z,3.94
2023-04-02T01:55:41.966Z,3.74
2023-04-02T01:58:12.540Z,3.76
2023-04-02T02:00:51.882Z,3.76
2023-04-02T02:03:21.791Z,3.66
2023-04-02T02:05:50.642Z,3.82
2023-04-02T02:08:35.468Z,3.82
2023-04-02T02:11:05.055Z,3.64
2023-04-02T02:13:33.704Z,3.63
2023-04-02T02:16:05.777Z,3.47
2023-04-02T02:18:34.625Z,3.54
2023-04-02T02:21:09.243Z,3.72
2023-04-02T02:23:38.480Z,3.52
2023-04-02T02:26:08.211Z,3.44
2023-04-02T02:28:43.752Z,3.57
2023-04-02T02:31:19.772Z,3.69
2023-04-02T02:33:52.639Z,3.79
2023-04-02T02:36:26.156Z,3.77
2023-04-02T02:38:58.424Z,3.79
2023-04-02T02:41:34.693Z,3.60
2023-04-02T02:44:12.765Z,3.68
2023-04-02T02:46:47.847Z,3.59
2023-04-02T02:49:19.998Z,3.62
2023-04-02T02:51:54.122Z,3.29
2023-04-02T02:54:23.347Z,3.56
2023-04-02T02:56:57.978Z,3.25
2023-04-02T02:59:27.138Z,3.52
2023-04-02T03:01:57.047Z,3.61
2023-04-02T03:04:26.619Z,3.57
2023-04-02T03:06:57.478Z,3.58
2023-04-02T03:09:38.349Z,3.43
2023-04-02T03:12:28.538Z,3.58
2023-04-02T03:15:04.632Z,3.55
2023-04-02T03:17:40.331Z,3.48
2023-04-02T03:20:18.564Z,3.49
2023-04-02T03:22:54.921Z,3.38
2023-04-02T03:25:35.102Z,3.45
2023-04-02T03:28:09.401Z,3.51
2023-04-02T03:30:45.378Z,3.47
2023-04-02T03:33:23.011Z,3.45
2023-04-02T03:35:59.688Z,3.55
2023-04-02T03:38:32.457Z,3.62
2023-04-02T03:41:06.434Z,3.62
2023-04-02T03:43:41.225Z,3.47
2023-04-02T03:46:25.366Z,3.44
2023-04-02T03:49:00.307Z,3.66
2023-04-02T03:51:34.450Z,3.50
2023-04-02T03:54:03.479Z,3.58
2023-04-02T03:56:40.186Z,3.56
2023-04-02T03:59:19.773Z,3.47
2023-04-02T04:01:55.947Z,3.51
2023-04-02T04:04:30.109Z,3.59
2023-04-02T04:07:00.086Z,3.62
2023-04-02T04:09:33.355Z,3.32
2023-04-02T04:12:16.789Z,3.32
2023-04-02T04:14:51.126Z,3.54
2023-04-02T04:17:30.268Z,3.46
2023-04-02T04:20:09.029Z,3.57
2023-04-02T04:22:38.139Z,3.29
2023-04-02T04:25:19.073Z,3.47
2023-04-02T04:28:05.812Z,3.54
2023-04-02T04:30:45.274Z,3.31
2023-04-02T04:33:22.494Z,3.44
2023-04-02T04:35:57.005Z,3.29
2023-04-02T04:38:33.130Z,3.31
2023-04-02T04:41:07.236Z,3.43
2023-04-02T04:43:47.268Z,3.37
2023-04-02T04:46:21.017Z,3.46
2023-04-02T04:48:56.992Z,3.43
2023-04-02T04:51:33.729Z,3.24
2023-04-02T04:54:02.745Z,2.97
2023-04-02T04:56:33.634Z,3.08
2023-04-02T04:59:07.350Z,3.24
2023-04-02T05:01:42.607Z,3.03
2023-04-02T05:04:17.959Z,3.16
2023-04-02T05:06:56.588Z,3.24
2023-04-02T05:09:34.301Z,2.79
2023-04-02T05:12:12.167Z,2.80
2023-04-02T05:14:46.021Z,2.91
2023-04-02T05:17:22.084Z,2.83
2023-04-02T05:19:57.845Z,3.03
2023-04-02T05:22:36.273Z,3.16
2023-04-02T05:25:18.396Z,3.06
2023-04-02T05:27:53.646Z,2.91
2023-04-02T05:30:49.590Z,3.20
2023-04-02T05:33:29.723Z,3.40
2023-04-02T05:36:02.760Z,3.43
2023-04-02T05:38:36.445Z,3.19
2023-04-02T05:41:08.943Z,3.41
2023-04-02T05:43:40.862Z,3.28
2023-04-02T05:46:18.748Z,3.31
2023-04-02T05:48:52.563Z,3.49
2023-04-02T05:51:25.835Z,3.39
2023-04-02T05:53:58.576Z,3.50
2023-04-02T05:56:31.507Z,3.56
2023-04-02T05:59:07.707Z,3.77
2023-04-02T06:01:43.255Z,3.68
2023-04-02T06:04:22.362Z,3.65
2023-04-02T06:07:00.980Z,3.59
2023-04-02T06:09:40.987Z,3.94
2023-04-02T06:12:27.945Z,4.03
2023-04-02T06:14:56.705Z,3.94
2023-04-02T06:17:25.634Z,3.88
2023-04-02T06:19:57.716Z,3.86
2023-04-02T06:22:34.399Z,3.82
2023-04-02T06:25:10.950Z,3.91
2023-04-02T06:27:41.672Z,4.06
2023-04-02T06:30:19.886Z,4.11
2023-04-02T06:32:48.351Z,3.97
2023-04-02T06:35:17.431Z,3.98
2023-04-02T06:37:49.695Z,4.17
2023-04-02T06:40:39.623Z,4.12
2023-04-02T06:43:15.927Z,4.11
2023-04-02T06:45:47.852Z,4.22
2023-04-02T06:48:19.634Z,4.21
2023-04-02T06:50:51.377Z,4.32
2023-04-02T06:53:25.923Z,4.28
2023-04-02T06:56:04.533Z,4.58
2023-04-02T06:58:32.976Z,4.40
2023-04-02T07:01:01.483Z,4.42
2023-04-02T07:03:32.508Z,4.64
2023-04-02T07:06:03.592Z,4.41
2023-04-02T07:08:32.249Z,4.57
2023-04-02T07:11:02.105Z,4.59
2023-04-02T07:13:30.767Z,4.75
2023-04-02T07:15:59.262Z,4.88
2023-04-02T07:18:30.610Z,4.92
2023-04-02T07:20:59.411Z,4.85
2023-04-02T07:23:28.375Z,4.96
2023-04-02T07:25:58.740Z,5.04
2023-04-02T07:28:28.590Z,5.07
2023-04-02T07:30:57.897Z,5.07
2023-04-02T07:33:29.519Z,5.18
2023-04-02T07:35:59.579Z,5.25
2023-04-02T07:38:28.230Z,5.39
2023-04-02T07:40:56.669Z,5.48
2023-04-02T07:43:25.303Z,5.30
2023-04-02T07:45:55.120Z,5.70
2023-04-02T07:48:23.622Z,5.50
2023-04-02T07:50:52.034Z,5.72
2023-04-02T07:53:30.915Z,5.64
2023-04-02T07:56:01.161Z,5.77
2023-04-02T07:58:30.270Z,5.75
2023-04-02T08:01:01.629Z,5.88
2023-04-02T08:03:30.433Z,5.74
2023-04-02T08:06:00.473Z,5.84
2023-04-02T08:08:28.991Z,5.89
2023-04-02T08:10:57.644Z,5.78
2023-04-02T08:13:26.301Z,5.50
2023-04-02T08:15:54.733Z,5.69
2023-04-02T08:18:25.164Z,5.76
2023-04-02T08:20:53.822Z,5.67
2023-04-02T08:23:22.394Z,5.89
2023-04-02T08:25:51.934Z,6.00
2023-04-02T08:28:21.428Z,5.92
2023-04-02T08:30:50.407Z,5.67
2023-04-02T08:33:19.937Z,5.97
2023-04-02T08:35:51.711Z,6.08
2023-04-02T08:38:23.032Z,6.15
2023-04-02T08:40:53.470Z,6.23
2023-04-02T08:44:03.403Z,6.31
2023-04-02T08:46:38.476Z,6.22
2023-04-02T08:49:15.939Z,6.17
2023-04-02T08:51:47.417Z,6.29
2023-04-02T08:54:22.569Z,6.36
2023-04-02T08:56:57.101Z,6.46
2023-04-02T08:59:34.383Z,6.65
2023-04-02T09:02:25.555Z,6.55
2023-04-02T09:04:54.330Z,6.64
2023-04-02T09:07:24.364Z,6.84
2023-04-02T09:09:52.938Z,7.07
2023-04-02T09:12:25.675Z,6.36
2023-04-02T09:15:08.065Z,6.82
2023-04-02T09:17:50.687Z,7.09
2023-04-02T09:20:26.310Z,7.22
2023-04-02T09:22:58.921Z,7.49
2023-04-02T09:25:31.451Z,7.40
2023-04-02T09:28:05.422Z,7.55
2023-04-02T09:30:55.572Z,7.43
2023-04-02T09:33:44.071Z,7.40
2023-04-02T09:36:27.721Z,7.39
2023-04-02T09:39:06.881Z,7.23
2023-04-02T09:41:37.464Z,6.89
2023-04-02T09:44:24.951Z,7.03
2023-04-02T09:46:59.593Z,7.03
2023-04-02T09:49:31.391Z,7.13
2023-04-02T09:52:28.257Z,7.13
2023-04-02T09:55:31.097Z,7.34
2023-04-02T09:58:14.757Z,7.34
2023-04-02T10:00:52.493Z,7.11
2023-04-02T10:03:26.974Z,7.05
2023-04-02T10:06:14.040Z,6.93
2023-04-02T10:08:44.693Z,7.11
2023-04-02T10:11:18.591Z,7.04
2023-04-02T10:13:54.185Z,7.24
2023-04-02T10:16:33.334Z,7.28
2023-04-02T10:19:08.566Z,7.25
2023-04-02T10:21:39.651Z,7.32
2023-04-02T10:24:13.912Z,6.70
2023-04-02T10:27:02.856Z,6.86
2023-04-02T10:29:56.383Z,7.14
2023-04-02T10:32:32.170Z,7.23
2023-04-02T10:35:04.534Z,7.42
2023-04-02T10:38:17.154Z,7.69
2023-04-02T10:40:50.469Z,7.60
2023-04-02T10:44:19.376Z,7.48
2023-04-02T10:47:01.114Z,7.80
2023-04-02T10:49:39.595Z,7.60
2023-04-02T10:52:13.634Z,7.62
2023-04-02T10:54:48.060Z,7.53
2023-04-02T10:57:30.377Z,7.36
2023-04-02T11:00:17.155Z,7.72
2023-04-02T11:02:52.366Z,7.65
2023-04-02T11:05:29.680Z,7.66
2023-04-02T11:08:04.268Z,7.79
2023-04-02T11:10:38.765Z,7.31
2023-04-02T11:13:16.909Z,7.43
2023-04-02T11:15:47.047Z,8.15
2023-04-02T11:18:28.930Z,8.49
2023-04-02T11:21:04.581Z,8.68
2023-04-02T11:23:58.757Z,8.67
2023-04-02T11:26:41.310Z,8.31
2023-04-02T11:29:27.632Z,8.72
2023-04-02T11:32:36.033Z,8.67
2023-04-02T11:35:38.542Z,8.32
2023-04-02T11:38:52.330Z,8.34
2023-04-02T11:42:03.882Z,8.70
2023-04-02T11:44:32.383Z,8.74
2023-04-02T11:47:19.405Z,8.83
2023-04-02T11:50:31.362Z,8.79
2023-04-02T11:53:03.876Z,8.56
2023-04-02T11:58:53.089Z,8.17
2023-04-02T12:01:51.773Z,8.17
2023-04-02T12:05:09.350Z,7.61
2023-04-02T12:08:07.739Z,6.56
2023-04-02T12:10:57.857Z,6.19
2023-04-02T12:13:50.990Z,5.94
2023-04-02T12:16:20.732Z,5.32
2023-04-02T12:18:54.394Z,5.20
2023-04-02T12:21:26.082Z,4.35
2023-04-02T12:23:58.774Z,3.72
2023-04-02T12:26:37.596Z,3.24
2023-04-02T12:29:26.239Z,3.27
2023-04-02T12:31:56.778Z,3.00
2023-04-02T12:34:28.550Z,3.05
2023-04-02T12:37:02.859Z,3.15
2023-04-02T12:39:34.859Z,3.41
2023-04-02T12:42:03.466Z,3.47
2023-04-02T12:44:32.844Z,3.62
2023-04-02T12:47:01.520Z,3.49
2023-04-02T12:49:38.130Z,3.44
2023-04-02T12:52:09.307Z,3.50
2023-04-02T12:54:46.583Z,3.36
2023-04-02T12:57:40.251Z,3.52
2023-04-02T13:00:33.088Z,3.59
2023-04-02T13:03:18.144Z,3.66
2023-04-02T13:05:52.701Z,3.63
2023-04-02T13:08:25.172Z,3.78
2023-04-02T13:11:00.585Z,3.86
2023-04-02T13:13:34.161Z,3.78
2023-04-02T13:16:23.702Z,3.74
2023-04-02T13:18:52.615Z,3.99
2023-04-02T13:21:28.848Z,3.85
2023-04-02T13:23:57.475Z,4.00
2023-04-02T13:26:28.969Z,3.97
2023-04-02T13:29:02.350Z,4.14
2023-04-02T13:31:32.370Z,4.17
2023-04-02T13:34:01.274Z,4.31
2023-04-02T13:36:29.878Z,4.37
2023-04-02T13:38:58.525Z,4.43
2023-04-02T13:41:31.370Z,4.51
2023-04-02T13:44:02.900Z,4.76
2023-04-02T13:46:33.922Z,5.02
2023-04-02T13:49:02.995Z,5.59
2023-04-02T13:51:38.251Z,5.69
2023-04-02T13:54:13.988Z,5.70
2023-04-02T13:56:44.036Z,6.07
2023-04-02T13:59:12.642Z,6.39
2023-04-02T14:01:42.081Z,6.67
2023-04-02T14:04:12.443Z,6.77
2023-04-02T14:07:31.346Z,6.82
2023-04-02T14:10:08.627Z,6.78
2023-04-02T14:12:53.485Z,6.85
2023-04-02T14:15:34.802Z,7.13
2023-04-02T14:18:36.832Z,6.91
2023-04-02T14:21:16.344Z,6.94
2023-04-02T14:24:05.956Z,6.82
2023-04-02T14:26:44.236Z,7.47
2023-04-02T14:29:21.041Z,7.74
2023-04-02T14:31:57.096Z,7.68
2023-04-02T14:34:33.949Z,7.76
2023-04-02T14:37:14.353Z,7.79
2023-04-02T14:39:53.429Z,7.48
2023-04-02T14:42:29.197Z,8.04
2023-04-02T14:45:05.778Z,7.90
2023-04-02T14:47:40.259Z,8.13
2023-04-02T14:50:16.384Z,7.76
2023-04-02T14:52:49.056Z,7.68
2023-04-02T14:55:28.079Z,7.39
2023-04-02T14:57:57.478Z,7.45
2023-04-02T15:00:40.472Z,7.40
2023-04-02T15:03:14.551Z,7.19
2023-04-02T15:05:46.652Z,7.16
2023-04-02T15:08:21.710Z,7.12
2023-04-02T15:11:04.997Z,7.23
2023-04-02T15:13:39.969Z,7.05
2023-04-02T15:16:19.528Z,7.29
2023-04-02T15:18:51.864Z,7.18
2023-04-02T15:21:49.721Z,7.24
2023-04-02T15:24:34.522Z,7.22
2023-04-02T15:27:25.143Z,7.25
2023-04-02T15:30:04.300Z,7.37
2023-04-02T15:32:40.793Z,7.46
2023-04-02T15:35:22.476Z,7.51
2023-04-02T15:38:01.454Z,7.55
2023-04-02T15:40:56.245Z,7.75
2023-04-02T15:43:30.834Z,7.64
2023-04-02T15:46:13.907Z,7.80
2023-04-02T15:49:21.177Z,7.90
2023-04-02T15:52:06.991Z,7.73
2023-04-02T15:54:56.403Z,7.50
2023-04-02T15:57:47.230Z,7.65
2023-04-02T16:00:30.770Z,7.55
2023-04-02T16:03:40.140Z,7.79
2023-04-02T16:06:26.119Z,7.72
2023-04-02T16:09:09.218Z,7.72
2023-04-02T16:11:37.750Z,7.15
2023-04-02T16:14:22.846Z,7.27
2023-04-02T16:16:53.882Z,7.24
2023-04-02T16:19:30.602Z,7.00
2023-04-02T16:22:10.088Z,6.87
2023-04-02T16:24:38.632Z,7.04
2023-04-02T16:27:22.884Z,7.73
2023-04-02T16:30:07.369Z,8.26
2023-04-02T16:32:59.582Z,7.96
2023-04-02T16:35:43.053Z,7.62
2023-04-02T16:38:31.835Z,6.89
2023-04-02T16:41:10.630Z,7.07
2023-04-02T16:43:50.781Z,7.30
2023-04-02T16:46:39.083Z,6.92
2023-04-02T16:49:22.191Z,6.75
2023-04-02T16:52:01.835Z,6.52
2023-04-02T16:54:41.686Z,6.52
2023-04-02T17:00:30.756Z,6.01
2023-04-02T17:03:20.698Z,6.57
2023-04-02T17:05:57.654Z,6.48
2023-04-02T17:08:28.414Z,6.12
2023-04-02T17:11:02.853Z,6.18
2023-04-02T17:13:41.171Z,6.19
2023-04-02T17:16:20.171Z,5.70
2023-04-02T17:18:52.358Z,5.74
2023-04-02T17:21:26.521Z,5.49
2023-04-02T17:23:59.362Z,5.70
2023-04-02T17:26:32.525Z,5.37
2023-04-02T17:29:07.350Z,5.27
2023-04-02T17:31:37.333Z,5.27
2023-04-02T17:34:15.441Z,5.31
2023-04-02T17:36:54.886Z,5.59
2023-04-02T17:39:32.580Z,5.35
2023-04-02T17:42:15.647Z,5.24
2023-04-02T17:45:06.110Z,5.14
2023-04-02T17:47:45.779Z,5.11
2023-04-02T17:50:40.408Z,5.06
2023-04-02T17:53:20.642Z,5.41
2023-04-02T17:56:03.731Z,5.04
2023-04-02T17:59:03.296Z,5.12
2023-04-02T18:01:35.905Z,5.24
2023-04-02T18:04:19.702Z,5.32
2023-04-02T18:07:05.142Z,5.28
2023-04-02T18:09:45.003Z,5.36
2023-04-02T18:12:32.760Z,5.35
2023-04-02T18:15:26.000Z,5.02
2023-04-02T18:18:00.240Z,5.19
2023-04-02T18:20:36.748Z,5.11
2023-04-02T18:23:15.350Z,4.99
2023-04-02T18:25:55.347Z,5.08
2023-04-02T18:28:42.360Z,5.14
2023-04-02T18:31:23.251Z,4.89
2023-04-02T18:34:33.499Z,4.99
2023-04-02T18:37:16.486Z,5.16
2023-04-02T18:40:18.317Z,5.13
2023-04-02T18:42:59.755Z,4.94
2023-04-02T18:45:40.871Z,4.84
2023-04-02T18:48:23.454Z,4.71
2023-04-02T18:50:52.023Z,4.90
2023-04-02T18:53:25.489Z,4.72
2023-04-02T18:55:58.446Z,4.65
2023-04-02T18:58:32.940Z,4.59
2023-04-02T19:01:02.532Z,4.62
2023-04-02T19:03:39.798Z,4.73
2023-04-02T19:06:13.828Z,4.62
2023-04-02T19:08:49.758Z,4.71
2023-04-02T19:11:28.545Z,4.70
2023-04-02T19:14:00.273Z,4.80
2023-04-02T19:17:05.277Z,4.75
2023-04-02T19:19:42.451Z,5.07
2023-04-02T19:22:31.557Z,4.90
2023-04-02T19:25:18.306Z,4.66
2023-04-02T19:28:02.000Z,4.77
2023-04-02T19:30:44.325Z,4.68
2023-04-02T19:33:26.095Z,4.89
2023-04-02T19:36:00.909Z,4.58
2023-04-02T19:38:55.396Z,4.86
2023-04-02T19:41:31.250Z,4.91
2023-04-02T19:44:00.371Z,4.81
2023-04-02T19:46:29.377Z,4.78
2023-04-02T19:49:05.936Z,4.86
2023-04-02T19:51:35.748Z,4.98
2023-04-02T19:54:04.964Z,5.06
2023-04-02T19:56:33.479Z,5.01
2023-04-02T19:59:07.772Z,4.80
2023-04-02T20:01:45.349Z,4.87
2023-04-02T20:04:14.007Z,4.99
2023-04-02T20:06:44.805Z,4.62
2023-04-02T20:12:02.466Z,4.86
2023-04-02T20:14:31.012Z,4.74
2023-04-02T20:16:59.499Z,4.68
2023-04-02T20:19:28.032Z,4.75
2023-04-02T20:21:57.848Z,4.68
2023-04-02T20:24:26.285Z,4.47
2023-04-02T20:26:54.841Z,4.55
2023-04-02T20:29:27.859Z,4.47
2023-04-02T20:31:56.468Z,4.43
2023-04-02T20:34:25.564Z,4.50
2023-04-02T20:36:54.198Z,4.52
2023-04-02T20:39:24.217Z,4.74
2023-04-02T20:41:52.652Z,4.54
2023-04-02T20:44:21.533Z,4.24
2023-04-02T20:46:49.965Z,4.09
2023-04-02T20:49:18.618Z,4.23
2023-04-02T20:51:47.922Z,4.23
2023-04-02T20:54:17.022Z,4.31
2023-04-02T20:56:47.617Z,3.99
2023-04-02T20:59:16.031Z,4.19
2023-04-02T21:01:44.510Z,4.15
2023-04-02T21:04:14.242Z,3.84
2023-04-02T21:06:44.407Z,3.93
2023-04-02T21:09:17.968Z,3.88
2023-04-02T21:11:47.994Z,3.84
2023-04-02T21:14:16.571Z,3.92
2023-04-02T21:16:45.096Z,3.88
2023-04-02T21:19:13.509Z,3.79
2023-04-02T21:21:44.217Z,3.71
2023-04-02T21:24:13.422Z,3.80
2023-04-02T21:26:44.414Z,3.86
2023-04-02T21:29:14.661Z,3.70
2023-04-02T21:31:43.776Z,3.72
2023-04-02T21:34:16.534Z,3.80
2023-04-02T21:36:47.269Z,3.86
2023-04-02T21:39:21.353Z,3.64
2023-04-02T21:41:51.978Z,3.56
2023-04-02T21:44:24.442Z,3.65
2023-04-02T21:46:54.224Z,3.58
2023-04-02T21:49:25.737Z,3.43
2023-04-02T21:51:54.314Z,3.37
2023-04-02T21:54:23.713Z,3.27
2023-04-02T21:56:52.687Z,3.38
2023-04-02T21:59:22.622Z,3.62
2023-04-02T22:01:53.117Z,3.30
2023-04-02T22:04:24.403Z,3.16
2023-04-02T22:06:54.585Z,3.24
2023-04-02T22:09:26.242Z,3.01
2023-04-02T22:11:59.417Z,3.09
2023-04-02T22:14:30.276Z,3.04
2023-04-02T22:16:59.365Z,2.94
2023-04-02T22:19:29.133Z,2.98
2023-04-02T22:21:57.697Z,2.80
2023-04-02T22:24:26.270Z,2.83
2023-04-02T22:26:54.997Z,2.75
2023-04-02T22:29:23.833Z,2.80
2023-04-02T22:31:53.686Z,2.76
2023-04-02T22:34:22.463Z,2.76
2023-04-02T22:36:50.905Z,2.78
2023-04-02T22:39:20.395Z,2.75
2023-04-02T22:41:48.799Z,2.75
2023-04-02T22:44:17.724Z,2.57
2023-04-02T22:46:46.134Z,2.40
2023-04-02T22:49:19.616Z,2.39
2023-04-02T22:51:48.298Z,2.33
2023-04-02T22:54:17.260Z,2.54
2023-04-02T22:56:45.748Z,2.49
2023-04-02T22:59:14.948Z,2.58
2023-04-02T23:01:44.571Z,2.38
2023-04-02T23:04:13.038Z,2.10
2023-04-02T23:06:42.883Z,2.07
2023-04-02T23:09:11.806Z,1.96
2023-04-02T23:11:40.794Z,1.98
2023-04-02T23:14:09.247Z,1.92
2023-04-02T23:16:37.987Z,1.85
2023-04-02T23:19:06.493Z,1.80
2023-04-02T23:21:34.960Z,1.75
2023-04-02T23:24:05.107Z,1.74
2023-04-02T23:26:34.092Z,1.45
2023-04-02T23:29:02.814Z,1.44
2023-04-02T23:31:31.679Z,1.58
2023-04-02T23:34:00.209Z,1.56
2023-04-02T23:36:31.665Z,1.56
2023-04-02T23:39:02.720Z,1.60
2023-04-02T23:41:33.210Z,1.44
2023-04-02T23:44:01.706Z,1.52
2023-04-02T23:46:31.224Z,1.36
2023-04-02T23:49:00.985Z,1.38
2023-04-02T23:51:31.459Z,1.43
2023-04-02T23:54:00.375Z,1.37
2023-04-02T23:56:29.214Z,1.34
2023-04-02T23:58:59.055Z,1.36
